»·PEaware :: N695DS KCRQ-KSAN

N695DS :: KCRQ-KSAN

FLIGHT INFORMATION

Flight Status: Arrived
Operator: Privately registered:
United States
More flights under this callsign
Pilot: Christopher S. (2105)
Aircraft: Unknown
(DA62)
More flights by this aircraft type
Origin: KCRQ McClellan-Palomar
United States
Destination: KSAN San Diego Intl-Lindbergh
United States
More flights between these airports :: More routes between these airports
Route: MZB
File this flight plan on PilotEdge
Remarks:
Altitude:
(Current/Filed)
3,000ft
Speed:
(Current/Filed)
175kts
Departed: 11-Feb-19 07:26 PM
Arrived: 11-Feb-19 07:52 PM
Distance/Time
Traveled:
24nm/0:26
Distance/Time
To Go:
Arrived

Flight Plot

Page will automatically refresh every two minutes.


Map Options




Map Legend


Flown Route
Filed Route
Departure Airport
Arrival Airport
Navaid (VOR, NDB)
Fix

Horizontal Profiles

Position Reports

Time Latitude Longitude Heading Altitude Ground
Speed
11-Feb-19 18:58 33.127067 -117.279502 345 309ft 0kts
11-Feb-19 18:59 33.127067 -117.279502 345 309ft 0kts
11-Feb-19 19:00 33.127067 -117.279502 345 309ft 0kts
11-Feb-19 19:01 33.127067 -117.279502 345 309ft 0kts
11-Feb-19 19:02 33.127067 -117.279502 345 309ft 0kts
11-Feb-19 19:03 33.127067 -117.279502 345 309ft 0kts
11-Feb-19 19:04 33.127067 -117.279502 345 309ft 0kts
11-Feb-19 19:05 33.127067 -117.279502 345 309ft 0kts
11-Feb-19 19:06 33.127067 -117.279502 345 309ft 0kts
11-Feb-19 19:07 33.127067 -117.279502 345 309ft 0kts
11-Feb-19 19:08 33.127067 -117.279502 345 309ft 0kts
11-Feb-19 19:09 33.127067 -117.279502 345 309ft 0kts
11-Feb-19 19:10 33.127067 -117.279502 345 309ft 0kts
11-Feb-19 19:11 33.127067 -117.279502 345 309ft 0kts
11-Feb-19 19:12 33.127067 -117.279502 345 309ft 0kts
11-Feb-19 19:13 33.127067 -117.279502 345 309ft 0kts
11-Feb-19 19:14 33.127067 -117.279502 345 309ft 0kts
11-Feb-19 19:15 33.127067 -117.279502 345 309ft 0kts
11-Feb-19 19:17 33.127067 -117.279502 345 309ft 0kts
11-Feb-19 19:18 33.127067 -117.279502 345 309ft 0kts
11-Feb-19 19:19 33.127332 -117.279549 357 309ft 5kts
11-Feb-19 19:20 33.128077 -117.276109 75 308ft 15kts
11-Feb-19 19:21 33.128659 -117.272356 1 300ft 0kts
11-Feb-19 19:22 33.128659 -117.272356 1 300ft 0kts
11-Feb-19 19:23 33.128659 -117.272356 1 300ft 0kts
11-Feb-19 19:24 33.128659 -117.272356 1 300ft 0kts
11-Feb-19 19:25 33.128864 -117.272342 0 300ft 5kts
11-Feb-19 19:26 33.128037 -117.280852 256 324ft 94kts
11-Feb-19 19:27 33.123392 -117.312398 260 1544ft 99kts
11-Feb-19 19:28 33.118367 -117.350506 261 2437ft 133kts
11-Feb-19 19:29 33.104655 -117.391858 199 3002ft 161kts
11-Feb-19 19:30 33.060549 -117.373276 154 3000ft 175kts
11-Feb-19 19:31 33.016337 -117.349195 155 3000ft 174kts
11-Feb-19 19:31 32.979536 -117.329563 155 2999ft 171kts
11-Feb-19 19:33 32.928677 -117.302682 156 2999ft 170kts
11-Feb-19 19:34 32.886019 -117.280226 156 2972ft 166kts
11-Feb-19 19:35 32.843830 -117.257980 156 2974ft 166kts
11-Feb-19 19:35 32.818404 -117.227931 102 2977ft 163kts
11-Feb-19 19:37 32.805557 -117.166534 101 2976ft 160kts
11-Feb-19 19:38 32.795161 -117.115845 101 2978ft 152kts
11-Feb-19 19:38 32.787013 -117.075967 101 2980ft 146kts
11-Feb-19 19:39 32.777447 -117.029215 101 2981ft 144kts
11-Feb-19 19:40 32.768002 -116.982824 101 3112ft 145kts
11-Feb-19 19:41 32.758238 -116.935552 101 3754ft 150kts
11-Feb-19 19:42 32.734213 -116.901510 179 3779ft 150kts
11-Feb-19 19:43 32.692703 -116.899825 180 3776ft 147kts
11-Feb-19 19:44 32.672568 -116.931465 276 3833ft 129kts
11-Feb-19 19:45 32.681006 -116.973950 287 3451ft 132kts
11-Feb-19 19:46 32.691304 -117.016110 287 2946ft 133kts
11-Feb-19 19:47 32.701536 -117.058749 288 2466ft 134kts
11-Feb-19 19:48 32.711508 -117.098586 288 1914ft 111kts
11-Feb-19 19:49 32.719669 -117.132816 288 973ft 104kts
11-Feb-19 19:50 32.727561 -117.165205 288 358ft 97kts
11-Feb-19 19:51 32.733709 -117.190168 290 17ft 26kts
11-Feb-19 19:52 32.734402 -117.188362 106 17ft 28kts
11-Feb-19 19:53 32.732981 -117.178514 104 20ft 22kts
11-Feb-19 19:54 32.732514 -117.178011 199 20ft 0kts
11-Feb-19 19:55 32.732514 -117.178011 199 20ft 0kts
11-Feb-19 19:56 32.732514 -117.178011 199 20ft 0kts

Navigation Log

Ident Type
Flight plan parsing failed, navigation log unavailable